createdAt,value
2023-05-04T00:00:10.518Z,7.35
2023-05-04T00:02:37.374Z,6.88
2023-05-04T00:05:06.143Z,6.45
2023-05-04T00:07:33.197Z,8.90
2023-05-04T00:10:00.262Z,6.55
2023-05-04T00:12:27.475Z,7.32
2023-05-04T00:14:54.345Z,8.20
2023-05-04T00:17:21.179Z,7.70
2023-05-04T00:19:47.899Z,6.80
2023-05-04T00:22:14.657Z,7.00
2023-05-04T00:24:43.185Z,7.22
2023-05-04T00:27:10.647Z,5.93
2023-05-04T00:29:37.405Z,8.05
2023-05-04T00:32:04.383Z,9.50
2023-05-04T00:34:32.058Z,6.78
2023-05-04T00:36:58.757Z,7.22
2023-05-04T00:39:25.466Z,7.78
2023-05-04T00:41:52.184Z,9.43
2023-05-04T00:44:20.350Z,8.95
2023-05-04T00:46:47.323Z,8.35
2023-05-04T00:49:14.173Z,9.45
2023-05-04T00:51:41.207Z,8.93
2023-05-04T00:54:07.937Z,8.77
2023-05-04T00:56:41.164Z,7.10
2023-05-04T00:59:07.967Z,8.65
2023-05-04T01:01:34.693Z,8.02
2023-05-04T01:04:02.091Z,9.40
2023-05-04T01:07:02.033Z,8.00
2023-05-04T01:09:32.209Z,10.95
2023-05-04T01:12:14.109Z,7.78
2023-05-04T01:14:41.641Z,9.13
2023-05-04T01:17:08.885Z,8.25
2023-05-04T01:19:36.215Z,7.68
2023-05-04T01:22:02.991Z,8.75
2023-05-04T01:24:30.845Z,10.90
2023-05-04T01:27:24.955Z,8.52
2023-05-04T01:30:03.363Z,8.57
2023-05-04T01:32:31.779Z,9.23
2023-05-04T01:34:59.491Z,9.20
2023-05-04T01:37:26.520Z,9.40
2023-05-04T01:39:53.201Z,8.32
2023-05-04T01:42:20.034Z,9.98
2023-05-04T01:44:46.976Z,9.30
2023-05-04T01:47:13.767Z,9.82
2023-05-04T01:49:40.639Z,10.02
2023-05-04T01:52:07.365Z,8.80
2023-05-04T01:54:34.167Z,11.98
2023-05-04T01:57:01.959Z,8.35
2023-05-04T01:59:28.832Z,11.45
2023-05-04T02:01:55.839Z,11.98
2023-05-04T02:04:22.624Z,12.65
2023-05-04T02:06:49.306Z,10.18
2023-05-04T02:09:16.648Z,10.52
2023-05-04T02:11:43.357Z,9.75
2023-05-04T02:14:10.127Z,8.68
2023-05-04T02:16:36.977Z,7.88
2023-05-04T02:19:03.733Z,8.40
2023-05-04T02:21:30.584Z,9.65
2023-05-04T02:23:57.420Z,8.95
2023-05-04T02:26:24.271Z,9.38
2023-05-04T02:28:51.056Z,13.88
2023-05-04T02:31:18.076Z,11.75
2023-05-04T02:33:44.736Z,12.15
2023-05-04T02:36:11.468Z,11.75
2023-05-04T02:38:38.425Z,11.20
2023-05-04T02:41:05.229Z,10.70
2023-05-04T02:43:31.922Z,9.30
2023-05-04T02:45:58.689Z,10.82
2023-05-04T02:48:25.539Z,12.02
2023-05-04T02:50:52.388Z,11.80
2023-05-04T02:53:19.071Z,11.52
2023-05-04T02:55:45.805Z,10.93
2023-05-04T02:58:12.513Z,10.27
2023-05-04T03:00:39.250Z,11.75
2023-05-04T03:03:06.350Z,9.95
2023-05-04T03:05:33.106Z,11.65
2023-05-04T03:08:00.410Z,10.35
2023-05-04T03:10:27.178Z,12.40
2023-05-04T03:12:53.963Z,15.82
2023-05-04T03:15:21.008Z,11.75
2023-05-04T03:17:47.887Z,14.15
2023-05-04T03:20:14.905Z,11.68
2023-05-04T03:22:41.702Z,11.07
2023-05-04T03:25:08.811Z,11.55
2023-05-04T03:27:35.616Z,15.55
2023-05-04T03:30:02.922Z,12.02
2023-05-04T03:32:29.915Z,10.75
2023-05-04T03:34:56.661Z,12.35
2023-05-04T03:37:23.931Z,12.45
2023-05-04T03:39:50.677Z,13.00
2023-05-04T03:42:17.369Z,12.43
2023-05-04T03:44:44.153Z,11.95
2023-05-04T03:47:10.864Z,15.15
2023-05-04T03:49:37.529Z,10.35
2023-05-04T03:52:04.331Z,11.35
2023-05-04T03:54:31.283Z,12.63
2023-05-04T03:56:58.165Z,11.55
2023-05-04T03:59:24.943Z,9.93
2023-05-04T04:01:51.601Z,12.20
2023-05-04T04:04:18.354Z,11.23
2023-05-04T04:06:45.091Z,13.20
2023-05-04T04:09:11.774Z,12.18
2023-05-04T04:11:38.452Z,12.93
2023-05-04T04:14:05.253Z,10.75
2023-05-04T04:16:32.102Z,11.25
2023-05-04T04:18:59.080Z,11.98
2023-05-04T04:21:26.643Z,12.95
2023-05-04T04:23:53.922Z,12.52
2023-05-04T04:26:21.607Z,12.65
2023-05-04T04:28:51.452Z,11.68
2023-05-04T04:31:19.106Z,12.30
2023-05-04T04:33:47.371Z,12.45
2023-05-04T04:36:16.747Z,12.80
2023-05-04T04:38:43.633Z,12.82
2023-05-04T04:41:10.931Z,12.13
2023-05-04T04:43:37.770Z,13.80
2023-05-04T04:46:04.666Z,15.55
2023-05-04T04:48:31.438Z,14.43
2023-05-04T04:50:59.011Z,12.50
2023-05-04T04:53:25.792Z,16.55
2023-05-04T04:55:53.112Z,14.20
2023-05-04T04:58:19.895Z,15.20
2023-05-04T05:00:47.568Z,12.98
2023-05-04T05:03:14.408Z,15.73
2023-05-04T05:05:41.523Z,15.60
2023-05-04T05:08:08.263Z,15.38
2023-05-04T05:10:34.959Z,15.10
2023-05-04T05:13:01.899Z,16.13
2023-05-04T05:15:28.762Z,14.15
2023-05-04T05:17:56.456Z,15.35
2023-05-04T05:20:23.555Z,19.42
2023-05-04T05:22:51.578Z,16.73
2023-05-04T05:25:19.023Z,24.65
2023-05-04T05:27:45.945Z,13.27
2023-05-04T05:30:13.725Z,12.85
2023-05-04T05:32:40.666Z,16.98
2023-05-04T05:35:08.603Z,18.27
2023-05-04T05:37:35.481Z,19.27
2023-05-04T05:40:02.608Z,15.38
2023-05-04T05:42:30.793Z,15.60
2023-05-04T05:44:57.800Z,16.50
2023-05-04T05:47:24.470Z,17.42
2023-05-04T05:49:51.237Z,16.73
2023-05-04T05:52:18.301Z,14.90
2023-05-04T05:54:44.972Z,16.55
2023-05-04T05:57:11.791Z,16.45
2023-05-04T05:59:38.499Z,17.00
2023-05-04T06:02:05.923Z,15.00
2023-05-04T06:04:32.727Z,15.95
2023-05-04T06:06:59.500Z,21.90
2023-05-04T06:09:26.224Z,17.10
2023-05-04T06:11:54.826Z,14.63
2023-05-04T06:14:22.338Z,15.85
2023-05-04T06:16:49.173Z,15.77
2023-05-04T06:19:16.012Z,16.55
2023-05-04T06:21:42.833Z,16.08
2023-05-04T06:24:09.672Z,12.98
2023-05-04T06:26:36.486Z,13.73
2023-05-04T06:29:03.248Z,13.77
2023-05-04T06:31:29.971Z,13.57
2023-05-04T06:33:57.750Z,16.48
2023-05-04T06:36:26.124Z,12.27
2023-05-04T06:38:52.893Z,10.60
2023-05-04T06:41:19.769Z,10.30
2023-05-04T06:43:46.684Z,10.63
2023-05-04T06:46:13.366Z,13.75
2023-05-04T06:48:40.340Z,8.07
2023-05-04T06:51:07.172Z,10.07
2023-05-04T06:53:33.907Z,7.90
2023-05-04T06:56:00.860Z,5.90
2023-05-04T06:58:27.740Z,5.85
2023-05-04T07:00:55.331Z,5.30
2023-05-04T07:03:22.167Z,6.45
2023-05-04T07:05:50.659Z,6.07
2023-05-04T07:08:17.775Z,3.88
2023-05-04T07:10:44.880Z,4.40
2023-05-04T07:13:11.762Z,4.90
2023-05-04T07:15:39.271Z,6.00
2023-05-04T07:18:06.016Z,3.38
2023-05-04T07:20:32.918Z,3.30
2023-05-04T07:22:59.674Z,2.50
2023-05-04T07:25:27.184Z,4.47
2023-05-04T07:27:54.493Z,4.90
2023-05-04T07:30:21.658Z,4.15
2023-05-04T07:32:48.516Z,4.25
2023-05-04T07:35:15.394Z,5.03
2023-05-04T07:37:42.227Z,4.50
2023-05-04T07:40:10.565Z,7.07
2023-05-04T07:42:37.514Z,6.22
2023-05-04T07:45:04.752Z,4.85
2023-05-04T07:47:32.086Z,4.60
2023-05-04T07:49:58.846Z,6.18
2023-05-04T07:52:25.706Z,5.75
2023-05-04T07:54:53.480Z,5.15
2023-05-04T07:57:20.967Z,5.55
2023-05-04T07:59:47.821Z,6.10
2023-05-04T08:02:15.099Z,5.80
2023-05-04T08:04:41.755Z,4.68
2023-05-04T08:07:08.375Z,5.38
2023-05-04T08:09:35.150Z,6.15
2023-05-04T08:12:02.526Z,5.32
2023-05-04T08:14:29.571Z,6.22
2023-05-04T08:16:56.357Z,3.03
2023-05-04T08:19:23.130Z,3.72
2023-05-04T08:21:49.894Z,5.07
2023-05-04T08:24:18.376Z,4.80
2023-05-04T08:26:49.577Z,3.67
2023-05-04T08:29:22.800Z,4.30
2023-05-04T08:31:49.769Z,5.70
2023-05-04T08:34:16.546Z,6.75
2023-05-04T08:36:43.279Z,6.13
2023-05-04T08:39:11.959Z,5.90
2023-05-04T08:41:41.879Z,6.15
2023-05-04T08:44:13.716Z,8.70
2023-05-04T08:46:40.939Z,4.88
2023-05-04T08:49:07.830Z,5.13
2023-05-04T08:51:37.179Z,5.80
2023-05-04T08:54:13.169Z,7.88
2023-05-04T08:56:40.713Z,5.75
2023-05-04T08:59:11.943Z,5.28
2023-05-04T09:01:39.181Z,5.63
2023-05-04T09:04:06.399Z,4.97
2023-05-04T09:06:33.165Z,7.47
2023-05-04T09:08:59.892Z,6.63
2023-05-04T09:11:26.798Z,4.05
2023-05-04T09:13:53.546Z,6.15
2023-05-04T09:16:20.904Z,4.97
2023-05-04T09:18:47.681Z,5.60
2023-05-04T09:21:14.453Z,4.50
2023-05-04T09:23:49.277Z,6.65
2023-05-04T09:26:32.765Z,5.90
2023-05-04T09:29:13.932Z,8.57
2023-05-04T09:31:44.608Z,5.53
2023-05-04T09:34:11.384Z,4.05
2023-05-04T09:36:38.446Z,6.53
2023-05-04T09:39:12.318Z,3.63
2023-05-04T09:41:39.473Z,5.93
2023-05-04T09:44:17.408Z,3.95
2023-05-04T09:46:55.694Z,6.60
2023-05-04T09:49:36.898Z,5.60
2023-05-04T09:52:05.958Z,3.72
2023-05-04T09:54:38.904Z,3.88
2023-05-04T09:57:11.235Z,3.65
2023-05-04T09:59:39.660Z,5.80
2023-05-04T10:02:14.543Z,5.05
2023-05-04T10:04:50.592Z,6.82
2023-05-04T10:07:17.734Z,5.07
2023-05-04T10:09:44.821Z,4.45
2023-05-04T10:12:12.123Z,7.75
2023-05-04T10:14:39.090Z,4.65
2023-05-04T10:17:14.306Z,6.00
2023-05-04T10:20:08.589Z,6.82
2023-05-04T10:22:42.296Z,6.13
2023-05-04T10:25:30.814Z,5.53
2023-05-04T10:28:48.643Z,7.32
2023-05-04T10:31:15.715Z,5.20
2023-05-04T10:33:43.441Z,5.82
2023-05-04T10:36:11.645Z,5.60
2023-05-04T10:38:40.073Z,3.85
2023-05-04T10:41:21.421Z,6.25
2023-05-04T10:43:53.489Z,4.60
2023-05-04T10:46:24.433Z,4.93
2023-05-04T10:48:51.684Z,6.03
2023-05-04T10:51:23.565Z,5.70
2023-05-04T10:53:51.342Z,4.90
2023-05-04T10:56:21.859Z,5.80
2023-05-04T10:58:49.404Z,8.30
2023-05-04T11:01:16.829Z,6.53
2023-05-04T11:03:43.924Z,6.65
2023-05-04T11:06:24.827Z,10.43
2023-05-04T11:09:03.095Z,9.95
2023-05-04T11:11:29.950Z,9.32
2023-05-04T11:13:56.967Z,7.35
2023-05-04T11:16:25.119Z,7.00
2023-05-04T11:18:51.957Z,10.02
2023-05-04T11:21:26.761Z,11.30
2023-05-04T11:24:00.867Z,8.00
2023-05-04T11:26:28.724Z,7.53
2023-05-04T11:28:55.449Z,13.30
2023-05-04T11:31:22.779Z,8.20
2023-05-04T11:33:55.062Z,8.73
2023-05-04T11:36:22.879Z,6.03
2023-05-04T11:38:50.422Z,11.93
2023-05-04T11:41:17.224Z,8.70
2023-05-04T11:43:46.481Z,13.45
2023-05-04T11:46:14.527Z,9.35
2023-05-04T11:48:41.600Z,16.10
2023-05-04T11:51:08.652Z,10.07
2023-05-04T11:53:39.662Z,9.07
2023-05-04T11:56:08.915Z,6.43
2023-05-04T11:58:36.046Z,8.18
2023-05-04T12:01:04.545Z,8.48
2023-05-04T12:03:53.341Z,8.57
2023-05-04T12:06:31.513Z,10.23
2023-05-04T12:09:06.064Z,9.27
2023-05-04T12:11:34.165Z,8.70
2023-05-04T12:14:17.165Z,11.02
2023-05-04T12:16:55.639Z,8.15
2023-05-04T12:19:22.461Z,7.55
2023-05-04T12:21:54.009Z,8.30
2023-05-04T12:24:25.049Z,6.32
2023-05-04T12:26:52.036Z,13.38
2023-05-04T12:29:19.017Z,7.45
2023-05-04T12:31:45.763Z,8.80
2023-05-04T12:34:12.483Z,7.25
2023-05-04T12:36:39.128Z,8.70
2023-05-04T12:39:05.936Z,11.65
2023-05-04T12:41:32.662Z,7.97
2023-05-04T12:43:59.452Z,8.15
2023-05-04T12:46:26.274Z,9.15
2023-05-04T12:48:53.022Z,9.75
2023-05-04T12:51:19.799Z,10.68
2023-05-04T12:53:46.690Z,9.95
2023-05-04T12:56:13.451Z,8.60
2023-05-04T12:58:40.202Z,8.07
2023-05-04T13:01:07.575Z,7.45
2023-05-04T13:03:34.452Z,9.75
2023-05-04T13:06:01.237Z,8.90
2023-05-04T13:08:28.228Z,8.95
2023-05-04T13:10:55.039Z,8.95
2023-05-04T13:13:26.239Z,6.47
2023-05-04T13:15:53.168Z,7.70
2023-05-04T13:18:20.013Z,7.03
2023-05-04T13:20:46.930Z,5.38
2023-05-04T13:23:14.289Z,6.03
2023-05-04T13:25:41.045Z,9.30
2023-05-04T13:28:07.868Z,7.38
2023-05-04T13:30:34.629Z,6.38
2023-05-04T13:33:02.503Z,7.88
2023-05-04T13:35:32.410Z,5.63
2023-05-04T13:37:59.187Z,8.35
2023-05-04T13:40:25.876Z,6.30
2023-05-04T13:42:52.674Z,4.47
2023-05-04T13:45:22.993Z,6.15
2023-05-04T13:47:50.326Z,5.00
2023-05-04T13:50:17.332Z,4.72
2023-05-04T13:52:44.097Z,6.07
2023-05-04T13:55:11.969Z,4.70
2023-05-04T13:57:38.681Z,7.47
2023-05-04T14:00:08.217Z,5.72
2023-05-04T14:02:35.443Z,3.60
2023-05-04T14:05:04.051Z,4.68
2023-05-04T14:07:31.020Z,4.28
2023-05-04T14:09:59.034Z,3.97
2023-05-04T14:12:26.000Z,4.28
2023-05-04T14:14:53.315Z,6.18
2023-05-04T14:17:20.106Z,3.90
2023-05-04T14:19:46.795Z,4.10
2023-05-04T14:22:13.591Z,6.07
2023-05-04T14:24:40.257Z,3.58
2023-05-04T14:27:07.156Z,4.43
2023-05-04T14:29:34.663Z,4.38
2023-05-04T14:32:01.502Z,5.80
2023-05-04T14:34:28.344Z,5.80
2023-05-04T14:36:55.142Z,5.40
2023-05-04T14:39:22.314Z,5.93
2023-05-04T14:41:49.039Z,3.83
2023-05-04T14:44:16.023Z,5.03
2023-05-04T14:46:42.682Z,4.07
2023-05-04T14:49:11.056Z,3.72
2023-05-04T14:51:39.396Z,4.22
2023-05-04T14:54:06.050Z,5.07
2023-05-04T14:56:32.729Z,5.53
2023-05-04T14:59:01.474Z,6.70
2023-05-04T15:01:28.209Z,5.45
2023-05-04T15:03:56.308Z,8.13
2023-05-04T15:06:23.785Z,6.05
2023-05-04T15:08:50.669Z,5.15
2023-05-04T15:11:19.296Z,4.32
2023-05-04T15:13:46.313Z,4.93
2023-05-04T15:16:17.905Z,4.97
2023-05-04T15:18:44.709Z,5.30
2023-05-04T15:21:11.682Z,3.95
2023-05-04T15:23:38.458Z,4.50
2023-05-04T15:26:05.229Z,4.35
2023-05-04T15:28:32.104Z,4.88
2023-05-04T15:31:00.478Z,3.83
2023-05-04T15:33:27.374Z,2.63
2023-05-04T15:35:54.414Z,7.32
2023-05-04T15:38:21.154Z,8.00
2023-05-04T15:40:47.833Z,5.35
2023-05-04T15:43:15.220Z,4.13
2023-05-04T15:45:41.986Z,3.80
2023-05-04T15:48:08.720Z,4.20
2023-05-04T15:50:35.471Z,7.03
2023-05-04T15:53:02.148Z,3.92
2023-05-04T15:55:28.888Z,7.47
2023-05-04T15:57:55.590Z,5.30
2023-05-04T16:00:22.485Z,6.10
2023-05-04T16:02:49.403Z,4.55
2023-05-04T16:05:16.538Z,3.03
2023-05-04T16:07:43.323Z,4.40
2023-05-04T16:10:10.783Z,3.70
2023-05-04T16:12:39.252Z,5.75
2023-05-04T16:15:06.896Z,4.35
2023-05-04T16:17:35.366Z,7.43
2023-05-04T16:20:03.795Z,4.32
2023-05-04T16:22:31.725Z,3.42
2023-05-04T16:24:58.743Z,2.85
2023-05-04T16:27:28.816Z,5.40
2023-05-04T16:29:55.994Z,5.05
2023-05-04T16:32:23.104Z,4.35
2023-05-04T16:34:49.961Z,4.40
2023-05-04T16:37:18.386Z,3.42
2023-05-04T16:39:45.120Z,5.13
2023-05-04T16:42:11.897Z,3.65
2023-05-04T16:44:38.605Z,6.50
2023-05-04T16:47:05.538Z,8.43
2023-05-04T16:49:32.333Z,4.07
2023-05-04T16:51:59.130Z,4.32
2023-05-04T16:54:26.048Z,5.85
2023-05-04T16:56:52.953Z,5.07
2023-05-04T16:59:19.845Z,5.35
2023-05-04T17:01:47.507Z,4.72
2023-05-04T17:04:14.540Z,7.40
2023-05-04T17:06:41.308Z,5.72
2023-05-04T17:09:08.061Z,3.45
2023-05-04T17:11:34.868Z,4.05
2023-05-04T17:14:01.692Z,7.05
2023-05-04T17:16:28.434Z,5.47
2023-05-04T17:18:55.226Z,5.10
2023-05-04T17:21:22.150Z,7.35
2023-05-04T17:23:48.936Z,7.47
2023-05-04T17:26:16.040Z,6.32
2023-05-04T17:28:42.806Z,3.75
2023-05-04T17:31:12.597Z,4.18
2023-05-04T17:33:39.593Z,4.38
2023-05-04T17:36:07.761Z,4.18
2023-05-04T17:38:34.646Z,5.80
2023-05-04T17:41:01.593Z,4.65
2023-05-04T17:43:28.461Z,5.30
2023-05-04T17:45:56.033Z,5.88
2023-05-04T17:48:24.085Z,4.75
2023-05-04T17:50:51.359Z,4.47
2023-05-04T17:53:18.403Z,6.30
2023-05-04T17:55:45.115Z,5.43
2023-05-04T17:58:11.912Z,6.95
2023-05-04T18:00:38.612Z,6.65
2023-05-04T18:03:05.753Z,5.38
2023-05-04T18:05:32.589Z,4.22
2023-05-04T18:07:59.396Z,5.30
2023-05-04T18:10:26.295Z,6.18
2023-05-04T18:12:53.333Z,4.82
2023-05-04T18:15:20.220Z,6.05
2023-05-04T18:17:48.477Z,3.88
2023-05-04T18:20:15.744Z,5.38
2023-05-04T18:22:42.461Z,7.10
2023-05-04T18:25:09.589Z,5.35
2023-05-04T18:27:36.447Z,5.72
2023-05-04T18:30:05.043Z,7.15
2023-05-04T18:32:32.087Z,4.57
2023-05-04T18:34:58.896Z,6.32
2023-05-04T18:37:25.947Z,5.15
2023-05-04T18:39:52.916Z,5.05
2023-05-04T18:42:19.799Z,6.95
2023-05-04T18:44:46.498Z,6.47
2023-05-04T18:47:13.269Z,5.78
2023-05-04T18:49:40.082Z,7.25
2023-05-04T18:52:06.780Z,6.85
2023-05-04T18:54:33.844Z,7.82
2023-05-04T18:57:01.132Z,7.90
2023-05-04T18:59:27.997Z,7.80
2023-05-04T19:01:54.937Z,7.45
2023-05-04T19:04:21.611Z,6.97
2023-05-04T19:06:51.685Z,7.90
2023-05-04T19:09:18.879Z,7.47
2023-05-04T19:11:46.789Z,12.35
2023-05-04T19:14:14.002Z,6.82
2023-05-04T19:16:41.127Z,7.93
2023-05-04T19:19:08.813Z,10.75
2023-05-04T19:21:35.649Z,7.88
2023-05-04T19:24:02.583Z,11.57
2023-05-04T19:26:29.489Z,8.20
2023-05-04T19:28:56.229Z,10.68
2023-05-04T19:31:23.553Z,8.73
2023-05-04T19:33:50.354Z,9.43
2023-05-04T19:36:17.227Z,17.58
2023-05-04T19:38:44.402Z,10.63
2023-05-04T19:41:11.303Z,11.48
2023-05-04T19:43:38.773Z,10.65
2023-05-04T19:46:05.865Z,11.18
2023-05-04T19:48:32.871Z,11.02
2023-05-04T19:50:59.793Z,11.23
2023-05-04T19:53:27.000Z,10.27
2023-05-04T19:55:54.078Z,11.05
2023-05-04T19:58:22.065Z,12.55
2023-05-04T20:00:48.940Z,11.30
2023-05-04T20:03:17.179Z,12.02
2023-05-04T20:05:44.278Z,11.07
2023-05-04T20:08:11.947Z,12.70
2023-05-04T20:10:38.738Z,14.07
2023-05-04T20:13:06.803Z,12.90
2023-05-04T20:15:34.153Z,13.50
2023-05-04T20:18:00.905Z,11.80
2023-05-04T20:20:27.650Z,14.48
2023-05-04T20:22:56.000Z,14.98
2023-05-04T20:25:23.505Z,11.98
2023-05-04T20:27:52.171Z,13.95
2023-05-04T20:30:19.371Z,15.80
2023-05-04T20:32:48.190Z,11.75
2023-05-04T20:35:15.164Z,18.83
2023-05-04T20:37:41.874Z,16.23
2023-05-04T20:40:09.347Z,16.33
2023-05-04T20:42:36.246Z,14.93
2023-05-04T20:45:03.539Z,15.05
2023-05-04T20:47:30.421Z,16.95
2023-05-04T20:49:57.382Z,16.42
2023-05-04T20:52:24.826Z,16.10
2023-05-04T20:54:51.576Z,16.58
2023-05-04T20:57:18.392Z,15.05
2023-05-04T20:59:45.459Z,16.58
2023-05-04T21:02:12.166Z,16.58
2023-05-04T21:04:39.041Z,16.42
2023-05-04T21:07:06.271Z,17.23
2023-05-04T21:09:33.120Z,16.48
2023-05-04T21:11:59.893Z,14.85
2023-05-04T21:14:26.690Z,15.98
2023-05-04T21:16:53.444Z,19.35
2023-05-04T21:19:20.440Z,14.90
2023-05-04T21:21:47.594Z,17.85
2023-05-04T21:24:14.653Z,17.00
2023-05-04T21:26:41.713Z,18.33
2023-05-04T21:29:12.890Z,14.35
2023-05-04T21:31:40.446Z,21.40
2023-05-04T21:34:07.407Z,14.80
2023-05-04T21:36:34.096Z,17.88
2023-05-04T21:39:00.862Z,16.10
2023-05-04T21:41:27.597Z,17.70
2023-05-04T21:43:54.339Z,19.92
2023-05-04T21:46:21.075Z,16.90
2023-05-04T21:48:47.860Z,17.65
2023-05-04T21:51:14.726Z,15.32
2023-05-04T21:53:43.465Z,16.73
2023-05-04T21:56:10.990Z,22.23
2023-05-04T21:58:40.573Z,23.33
2023-05-04T22:01:08.263Z,16.63
2023-05-04T22:03:35.391Z,19.88
2023-05-04T22:06:02.478Z,20.20
2023-05-04T22:08:29.783Z,19.00
2023-05-04T22:10:57.576Z,17.35
2023-05-04T22:13:25.090Z,24.08
2023-05-04T22:15:52.428Z,20.17
2023-05-04T22:18:19.603Z,21.20
2023-05-04T22:20:46.724Z,19.42
2023-05-04T22:23:13.867Z,22.95
2023-05-04T22:25:40.842Z,23.33
2023-05-04T22:28:07.901Z,19.85
2023-05-04T22:30:34.805Z,18.15
2023-05-04T22:33:01.881Z,21.05
2023-05-04T22:35:31.240Z,19.55
2023-05-04T22:37:58.136Z,23.17
2023-05-04T22:40:25.080Z,25.17
2023-05-04T22:42:51.796Z,22.83
2023-05-04T22:45:18.786Z,22.60
2023-05-04T22:47:46.806Z,22.42
2023-05-04T22:50:14.229Z,24.42
2023-05-04T22:52:41.212Z,24.60
2023-05-04T22:55:08.795Z,20.90
2023-05-04T22:57:36.067Z,24.23
2023-05-04T23:00:08.324Z,19.02
2023-05-04T23:02:36.189Z,18.38
2023-05-04T23:05:03.913Z,21.17
2023-05-04T23:07:31.017Z,19.38
2023-05-04T23:09:57.786Z,22.45
2023-05-04T23:12:25.546Z,22.35
2023-05-04T23:14:52.470Z,20.38
2023-05-04T23:17:19.629Z,21.25
2023-05-04T23:19:46.508Z,20.27
2023-05-04T23:22:13.934Z,21.92
2023-05-04T23:24:40.699Z,21.98
2023-05-04T23:27:07.477Z,22.65
2023-05-04T23:29:34.257Z,22.20
2023-05-04T23:32:01.223Z,21.63
2023-05-04T23:34:28.215Z,21.20
2023-05-04T23:36:55.001Z,20.73
2023-05-04T23:39:21.885Z,21.92
2023-05-04T23:41:48.613Z,24.77
2023-05-04T23:44:16.512Z,22.63
2023-05-04T23:46:43.263Z,27.77
2023-05-04T23:49:10.006Z,22.88
2023-05-04T23:51:36.736Z,23.20
2023-05-04T23:54:03.615Z,24.50
2023-05-04T23:56:31.712Z,28.80
2023-05-04T23:58:58.502Z,26.33
